createdAt,value
2022-12-17T00:00:12.625Z,98846.34
2022-12-17T00:02:58.133Z,98849.72
2022-12-17T00:06:00.087Z,98847.94
2022-12-17T00:08:45.593Z,98845.31
2022-12-17T00:11:31.163Z,98838.25
2022-12-17T00:14:16.564Z,98849.91
2022-12-17T00:17:02.032Z,98842.34
2022-12-17T00:19:47.436Z,98852.78
2022-12-17T00:22:32.756Z,98848.72
2022-12-17T00:25:17.933Z,98855.66
2022-12-17T00:28:03.895Z,98850.53
2022-12-17T00:30:49.258Z,98854.91
2022-12-17T00:33:35.004Z,98856.56
2022-12-17T00:36:20.799Z,98847.16
2022-12-17T00:39:23.004Z,98860.03
2022-12-17T00:42:08.401Z,98866.03
2022-12-17T00:45:02.255Z,98867.72
2022-12-17T00:47:47.531Z,98873.56
2022-12-17T00:50:32.879Z,98874.03
2022-12-17T00:53:18.238Z,98876.16
2022-12-17T00:56:03.651Z,98878.72
2022-12-17T00:58:49.009Z,98876.75
2022-12-17T01:01:34.625Z,98884.91
2022-12-17T01:04:20.023Z,98879.63
2022-12-17T01:07:05.285Z,98892.47
2022-12-17T01:09:50.490Z,98893.44
2022-12-17T01:12:36.121Z,98896.94
2022-12-17T01:15:21.455Z,98896.69
2022-12-17T01:18:06.763Z,98899.81
2022-12-17T01:20:52.334Z,98903.50
2022-12-17T01:23:38.080Z,98904.78
2022-12-17T01:26:24.173Z,98907.78
2022-12-17T01:29:09.682Z,98906.97
2022-12-17T01:31:55.102Z,98919.13
2022-12-17T01:34:40.512Z,98920.69
2022-12-17T01:37:26.398Z,98926.50
2022-12-17T01:40:11.835Z,98921.34
2022-12-17T01:43:02.466Z,98924.91
2022-12-17T01:45:57.888Z,98923.94
2022-12-17T01:48:50.401Z,98934.25
2022-12-17T01:51:36.801Z,98938.59
2022-12-17T01:54:23.595Z,98940.25
2022-12-17T01:57:09.409Z,98945.09
2022-12-17T02:00:24.184Z,98949.03
2022-12-17T02:03:09.635Z,98953.34
2022-12-17T02:06:06.992Z,98955.03
2022-12-17T02:09:00.346Z,98950.81
2022-12-17T02:12:13.821Z,98953.50
2022-12-17T02:15:10.715Z,98958.53
2022-12-17T02:18:02.516Z,98953.59
2022-12-17T02:21:01.118Z,98950.28
2022-12-17T02:24:20.345Z,98956.41
2022-12-17T02:27:15.975Z,98955.78
2022-12-17T02:30:04.927Z,98951.72
2022-12-17T02:32:53.999Z,98957.03
2022-12-17T02:36:06.115Z,98943.91
2022-12-17T02:38:52.190Z,98957.34
2022-12-17T02:41:44.357Z,98953.59
2022-12-17T02:44:31.441Z,98953.50
2022-12-17T02:47:21.245Z,98962.63
2022-12-17T02:50:06.747Z,98961.38
2022-12-17T02:52:58.835Z,98959.56
2022-12-17T02:55:45.491Z,98962.72
2022-12-17T02:58:32.187Z,98960.75
2022-12-17T03:01:19.467Z,98962.13
2022-12-17T03:04:04.772Z,98977.44
2022-12-17T03:06:50.315Z,98974.94
2022-12-17T03:09:35.539Z,98982.53
2022-12-17T03:12:22.034Z,98983.94
2022-12-17T03:15:07.467Z,98982.22
2022-12-17T03:17:52.858Z,98980.53
2022-12-17T03:20:38.322Z,98983.06
2022-12-17T03:23:27.138Z,98984.66
2022-12-17T03:26:13.014Z,98988.78
2022-12-17T03:28:58.488Z,98990.41
2022-12-17T03:31:43.788Z,98997.41
2022-12-17T03:34:29.240Z,99001.09
2022-12-17T03:37:14.622Z,99003.81
2022-12-17T03:40:00.178Z,99001.09
2022-12-17T03:42:45.619Z,99003.69
2022-12-17T03:45:30.939Z,99000.97
2022-12-17T03:48:31.029Z,98999.94
2022-12-17T03:51:16.891Z,99005.09
2022-12-17T03:54:02.789Z,98999.97
2022-12-17T03:56:48.709Z,99002.78
2022-12-17T03:59:34.037Z,98999.97
2022-12-17T04:02:19.740Z,99000.22
2022-12-17T04:05:04.847Z,98994.25
2022-12-17T04:07:54.673Z,98991.75
2022-12-17T04:10:39.794Z,98992.78
2022-12-17T04:13:25.319Z,98999.56
2022-12-17T04:16:10.793Z,99000.59
2022-12-17T04:18:56.034Z,99002.41
2022-12-17T04:21:41.402Z,99004.84
2022-12-17T04:24:29.949Z,99007.84
2022-12-17T04:27:15.288Z,99007.66
2022-12-17T04:30:00.616Z,99017.88
2022-12-17T04:32:45.940Z,99019.19
2022-12-17T04:35:31.272Z,99019.19
2022-12-17T04:38:16.814Z,99020.72
2022-12-17T04:41:02.267Z,99029.13
2022-12-17T04:43:47.756Z,99021.09
2022-12-17T04:46:33.400Z,99024.56
2022-12-17T04:49:18.999Z,99029.94
2022-12-17T04:52:04.525Z,99025.59
2022-12-17T04:54:50.003Z,99032.53
2022-12-17T04:57:35.493Z,99029.19
2022-12-17T05:00:21.056Z,99034.41
2022-12-17T05:03:06.346Z,99036.19
2022-12-17T05:05:51.833Z,99027.44
2022-12-17T05:08:41.385Z,99032.56
2022-12-17T05:11:27.041Z,99035.81
2022-12-17T05:14:12.496Z,99034.72
2022-12-17T05:16:57.792Z,99047.59
2022-12-17T05:19:43.114Z,99039.78
2022-12-17T05:22:28.569Z,99045.72
2022-12-17T05:25:13.947Z,99048.97
2022-12-17T05:28:01.256Z,99049.38
2022-12-17T05:30:46.570Z,99047.59
2022-12-17T05:33:31.590Z,99045.13
2022-12-17T05:36:20.623Z,99057.16
2022-12-17T05:39:07.066Z,99055.28
2022-12-17T05:41:53.628Z,99055.34
2022-12-17T05:44:39.052Z,99059.84
2022-12-17T05:47:24.839Z,99062.66
2022-12-17T05:50:10.228Z,99070.28
2022-12-17T05:52:55.568Z,99080.44
2022-12-17T05:55:40.889Z,99071.81
2022-12-17T05:58:29.928Z,99093.91
2022-12-17T06:01:17.052Z,99087.88
2022-12-17T06:04:02.537Z,99096.63
2022-12-17T06:06:48.288Z,99097.69
2022-12-17T06:09:33.592Z,99098.47
2022-12-17T06:12:18.979Z,99100.00
2022-12-17T06:15:04.428Z,99113.13
2022-12-17T06:17:49.591Z,99117.22
2022-12-17T06:20:34.979Z,99108.53
2022-12-17T06:23:20.827Z,99119.66
2022-12-17T06:26:06.124Z,99120.59
2022-12-17T06:28:51.441Z,99127.69
2022-12-17T06:31:41.341Z,99121.41
2022-12-17T06:34:27.040Z,99121.34
2022-12-17T06:37:12.404Z,99134.13
2022-12-17T06:39:58.177Z,99132.34
2022-12-17T06:42:43.707Z,99129.22
2022-12-17T06:45:28.998Z,99133.78
2022-12-17T06:48:26.734Z,99134.78
2022-12-17T06:51:12.978Z,99138.41
2022-12-17T06:53:59.456Z,99143.44
2022-12-17T06:56:45.443Z,99151.16
2022-12-17T06:59:30.771Z,99152.00
2022-12-17T07:02:16.289Z,99159.63
2022-12-17T07:05:01.849Z,99164.88
2022-12-17T07:07:47.283Z,99165.91
2022-12-17T07:10:32.699Z,99174.28
2022-12-17T07:13:25.262Z,99182.91
2022-12-17T07:16:11.572Z,99183.94
2022-12-17T07:18:57.339Z,99188.28
2022-12-17T07:21:43.264Z,99191.72
2022-12-17T07:24:28.558Z,99196.81
2022-12-17T07:27:13.972Z,99206.22
2022-12-17T07:29:59.412Z,99208.72
2022-12-17T07:32:44.921Z,99215.91
2022-12-17T07:35:30.222Z,99215.31
2022-12-17T07:38:20.126Z,99216.53
2022-12-17T07:41:05.561Z,99222.91
2022-12-17T07:43:53.234Z,99223.25
2022-12-17T07:46:39.125Z,99228.81
2022-12-17T07:49:26.135Z,99223.97
2022-12-17T07:52:11.980Z,99220.50
2022-12-17T07:54:57.460Z,99220.50
2022-12-17T07:57:43.434Z,99221.41
2022-12-17T08:00:29.240Z,99217.78
2022-12-17T08:03:18.763Z,99209.47
2022-12-17T08:06:04.840Z,99212.69
2022-12-17T08:08:50.155Z,99215.25
2022-12-17T08:11:35.664Z,99210.84
2022-12-17T08:14:21.182Z,99215.13
2022-12-17T08:17:06.534Z,99215.19
2022-12-17T08:19:52.116Z,99211.03
2022-12-17T08:22:37.458Z,99204.34
2022-12-17T08:25:23.249Z,99209.53
2022-12-17T08:28:33.870Z,99207.78
2022-12-17T08:31:20.361Z,99211.63
2022-12-17T08:34:08.035Z,99211.75
2022-12-17T08:36:53.524Z,99217.41
2022-12-17T08:39:38.856Z,99230.75
2022-12-17T08:42:24.129Z,99236.00
2022-12-17T08:45:17.151Z,99247.28
2022-12-17T08:48:04.484Z,99245.97
2022-12-17T08:50:49.688Z,99249.75
2022-12-17T08:53:35.383Z,99254.50
2022-12-17T08:56:20.935Z,99272.84
2022-12-17T08:59:06.227Z,99266.38
2022-12-17T09:02:11.589Z,99269.41
2022-12-17T09:04:57.045Z,99267.97
2022-12-17T09:07:42.305Z,99270.22
2022-12-17T09:10:28.035Z,99290.47
2022-12-17T09:13:13.543Z,99281.44
2022-12-17T09:15:58.789Z,99283.59
2022-12-17T09:19:00.874Z,99290.91
2022-12-17T09:21:47.257Z,99296.41
2022-12-17T09:24:32.561Z,99305.75
2022-12-17T09:27:17.919Z,99296.63
2022-12-17T09:30:03.047Z,99293.47
2022-12-17T09:32:49.444Z,99302.50
2022-12-17T09:35:34.897Z,99298.50
2022-12-17T09:38:20.105Z,99311.50
2022-12-17T09:41:08.663Z,99304.09
2022-12-17T09:43:57.213Z,99300.84
2022-12-17T09:46:50.010Z,99302.06
2022-12-17T09:49:44.449Z,99304.94
2022-12-17T09:52:36.324Z,99308.47
2022-12-17T09:55:28.402Z,99302.00
2022-12-17T09:58:13.804Z,99300.78
2022-12-17T10:01:01.082Z,99310.53
2022-12-17T10:03:49.033Z,99307.44
2022-12-17T10:06:46.911Z,99301.91
2022-12-17T10:09:35.296Z,99302.38
2022-12-17T10:12:34.743Z,99300.22
2022-12-17T10:15:20.592Z,99309.47
2022-12-17T10:18:06.122Z,99305.25
2022-12-17T10:20:56.751Z,99298.22
2022-12-17T10:23:50.889Z,99300.41
2022-12-17T10:26:53.071Z,99306.94
2022-12-17T10:29:47.114Z,99306.66
2022-12-17T10:32:33.278Z,99300.91
2022-12-17T10:35:21.189Z,99292.00
2022-12-17T10:38:07.091Z,99274.44
2022-12-17T10:40:52.970Z,99247.47
2022-12-17T10:43:45.848Z,99229.69
2022-12-17T10:46:47.982Z,99218.88
2022-12-17T10:49:36.908Z,99217.84
2022-12-17T10:52:33.324Z,99223.19
2022-12-17T10:55:24.491Z,99230.50
2022-12-17T10:58:11.260Z,99231.44
2022-12-17T11:00:58.959Z,99237.63
2022-12-17T11:03:47.310Z,99240.19
2022-12-17T11:06:42.203Z,99230.53
2022-12-17T11:10:09.788Z,99242.03
2022-12-17T11:13:08.570Z,99246.38
2022-12-17T11:16:03.006Z,99231.25
2022-12-17T11:19:22.768Z,99231.16
2022-12-17T11:22:12.644Z,99226.50
2022-12-17T11:25:11.249Z,99224.91
2022-12-17T11:28:03.164Z,99226.38
2022-12-17T11:31:02.980Z,99222.75
2022-12-17T11:33:57.919Z,99210.41
2022-12-17T11:36:50.334Z,99215.41
2022-12-17T11:39:44.672Z,99208.31
2022-12-17T11:42:48.437Z,99203.56
2022-12-17T11:46:11.776Z,99211.59
2022-12-17T11:49:24.675Z,99216.16
2022-12-17T11:52:29.854Z,99215.03
2022-12-17T11:55:54.751Z,99215.91
2022-12-17T11:59:00.173Z,99227.47
2022-12-17T12:02:03.908Z,99226.88
2022-12-17T12:05:15.522Z,99235.28
2022-12-17T12:08:23.549Z,99236.19
2022-12-17T12:11:21.301Z,99233.03
2022-12-17T12:14:23.829Z,99243.78
2022-12-17T12:17:27.040Z,99242.72
2022-12-17T12:20:40.456Z,99237.16
2022-12-17T12:23:41.307Z,99244.81
2022-12-17T12:26:41.644Z,99255.59
2022-12-17T12:29:45.959Z,99263.75
2022-12-17T12:32:37.285Z,99260.63
2022-12-17T12:35:26.252Z,99261.47
2022-12-17T12:38:11.841Z,99263.09
2022-12-17T12:41:27.134Z,99259.75
2022-12-17T12:44:18.209Z,99265.41
2022-12-17T12:47:20.755Z,99255.25
2022-12-17T12:50:16.863Z,99262.00
2022-12-17T12:53:02.716Z,99261.06
2022-12-17T12:56:00.289Z,99268.69
2022-12-17T12:58:47.210Z,99266.78
2022-12-17T13:01:33.166Z,99267.91
2022-12-17T13:04:20.727Z,99260.25
2022-12-17T13:06:54.116Z,99253.22
2022-12-17T13:09:32.213Z,99248.31
2022-12-17T13:12:04.074Z,99254.41
2022-12-17T13:14:36.413Z,99259.44
2022-12-17T13:17:28.012Z,99260.09
2022-12-17T13:19:57.658Z,99264.34
2022-12-17T13:22:24.835Z,99255.63
2022-12-17T13:24:55.066Z,99259.94
2022-12-17T13:27:33.771Z,99253.03
2022-12-17T13:30:29.763Z,99249.75
2022-12-17T13:33:21.429Z,99259.22
2022-12-17T13:35:53.705Z,99258.53
2022-12-17T13:38:44.773Z,99248.16
2022-12-17T13:41:16.637Z,99253.44
2022-12-17T13:43:50.855Z,99246.44
2022-12-17T13:46:23.389Z,99255.84
2022-12-17T13:48:56.315Z,99256.75
2022-12-17T13:51:24.688Z,99261.88
2022-12-17T13:53:53.890Z,99251.59
2022-12-17T13:56:29.841Z,99261.53
2022-12-17T13:59:00.915Z,99251.13
2022-12-17T14:01:30.524Z,99253.44
2022-12-17T14:04:06.611Z,99259.78
2022-12-17T14:06:37.991Z,99272.63
2022-12-17T14:09:05.380Z,99265.94
2022-12-17T14:11:52.310Z,99264.44
2022-12-17T14:14:31.570Z,99267.44
2022-12-17T14:16:58.921Z,99260.06
2022-12-17T14:19:28.015Z,99269.41
2022-12-17T14:21:55.567Z,99262.59
2022-12-17T14:24:27.155Z,99266.22
2022-12-17T14:26:58.161Z,99263.63
2022-12-17T14:29:29.137Z,99265.50
2022-12-17T14:31:58.790Z,99269.44
2022-12-17T14:34:25.836Z,99277.78
2022-12-17T14:36:55.670Z,99270.94
2022-12-17T14:39:30.258Z,99280.38
2022-12-17T14:42:18.081Z,99285.44
2022-12-17T14:44:54.031Z,99289.28
2022-12-17T14:47:27.179Z,99289.22
2022-12-17T14:50:06.726Z,99287.56
2022-12-17T14:52:33.559Z,99295.28
2022-12-17T14:55:00.732Z,99299.53
2022-12-17T14:57:27.404Z,99299.53
2022-12-17T14:59:54.124Z,99300.09
2022-12-17T15:02:27.722Z,99301.97
2022-12-17T15:05:01.759Z,99306.38
2022-12-17T15:07:30.223Z,99304.50
2022-12-17T15:10:00.099Z,99318.22
2022-12-17T15:12:27.796Z,99314.69
2022-12-17T15:14:54.451Z,99315.47
2022-12-17T15:17:21.896Z,99318.78
2022-12-17T15:19:55.575Z,99321.16
2022-12-17T15:22:23.243Z,99320.06
2022-12-17T15:24:49.862Z,99319.91
2022-12-17T15:27:17.166Z,99315.44
2022-12-17T15:29:45.002Z,99312.56
2022-12-17T15:32:22.725Z,99305.97
2022-12-17T15:34:50.476Z,99308.66
2022-12-17T15:37:22.489Z,99311.88
2022-12-17T15:39:52.251Z,99304.09
2022-12-17T15:42:37.486Z,99305.63
2022-12-17T15:45:04.587Z,99303.91
2022-12-17T15:47:31.197Z,99308.25
2022-12-17T15:49:57.921Z,99297.09
2022-12-17T15:52:24.594Z,99297.03
2022-12-17T15:54:51.256Z,99306.59
2022-12-17T15:57:18.837Z,99294.41
2022-12-17T15:59:45.833Z,99301.19
2022-12-17T16:02:13.096Z,99302.03
2022-12-17T16:04:40.842Z,99318.44
2022-12-17T16:07:07.874Z,99321.16
2022-12-17T16:09:34.627Z,99315.03
2022-12-17T16:12:01.245Z,99313.97
2022-12-17T16:14:27.927Z,99317.19
2022-12-17T16:16:54.643Z,99313.31
2022-12-17T16:19:23.899Z,99316.47
2022-12-17T16:21:50.601Z,99320.34
2022-12-17T16:24:17.653Z,99317.50
2022-12-17T16:26:44.583Z,99313.09
2022-12-17T16:29:11.340Z,99319.09
2022-12-17T16:31:38.098Z,99311.94
2022-12-17T16:34:09.790Z,99319.63
2022-12-17T16:36:36.968Z,99319.31
2022-12-17T16:39:05.103Z,99327.81
2022-12-17T16:41:32.518Z,99331.31
2022-12-17T16:43:59.168Z,99340.69
2022-12-17T16:46:32.155Z,99339.69
2022-12-17T16:49:04.952Z,99345.72
2022-12-17T16:51:31.838Z,99338.69
2022-12-17T16:53:59.282Z,99337.69
2022-12-17T16:56:28.375Z,99339.38
2022-12-17T16:58:56.219Z,99335.91
2022-12-17T17:01:26.050Z,99338.44
2022-12-17T17:03:53.271Z,99336.63
2022-12-17T17:06:20.622Z,99338.13
2022-12-17T17:08:47.528Z,99340.63
2022-12-17T17:11:22.104Z,99340.50
2022-12-17T17:13:50.447Z,99336.97
2022-12-17T17:16:19.005Z,99342.69
2022-12-17T17:18:45.772Z,99334.59
2022-12-17T17:21:12.333Z,99343.16
2022-12-17T17:23:39.328Z,99343.78
2022-12-17T17:26:06.164Z,99338.56
2022-12-17T17:28:32.908Z,99339.34
2022-12-17T17:31:03.498Z,99338.59
2022-12-17T17:33:32.047Z,99342.94
2022-12-17T17:36:11.349Z,99347.22
2022-12-17T17:38:40.026Z,99342.16
2022-12-17T17:41:10.769Z,99343.94
2022-12-17T17:43:37.429Z,99356.06
2022-12-17T17:46:09.173Z,99353.53
2022-12-17T17:48:37.070Z,99362.59
2022-12-17T17:51:10.986Z,99375.38
2022-12-17T17:53:38.283Z,99364.97
2022-12-17T17:56:07.149Z,99369.19
2022-12-17T17:58:34.724Z,99372.75
2022-12-17T18:01:08.004Z,99361.41
2022-12-17T18:03:35.004Z,99367.38
2022-12-17T18:06:03.351Z,99378.34
2022-12-17T18:08:34.436Z,99381.53
2022-12-17T18:11:02.415Z,99370.13
2022-12-17T18:13:47.873Z,99374.75
2022-12-17T18:16:15.353Z,99382.66
2022-12-17T18:18:42.339Z,99378.16
2022-12-17T18:21:11.442Z,99395.03
2022-12-17T18:23:39.222Z,99387.03
2022-12-17T18:26:18.063Z,99391.19
2022-12-17T18:28:46.081Z,99388.88
2022-12-17T18:31:22.035Z,99384.66
2022-12-17T18:33:52.029Z,99388.25
2022-12-17T18:36:21.751Z,99393.19
2022-12-17T18:38:55.241Z,99399.44
2022-12-17T18:41:40.650Z,99384.72
2022-12-17T18:44:07.415Z,99402.38
2022-12-17T18:46:35.247Z,99396.47
2022-12-17T18:49:10.885Z,99395.91
2022-12-17T18:51:40.172Z,99394.94
2022-12-17T18:54:08.906Z,99399.63
2022-12-17T18:57:00.533Z,99404.91
2022-12-17T18:59:29.022Z,99410.03
2022-12-17T19:01:57.222Z,99401.72
2022-12-17T19:04:25.443Z,99398.94
2022-12-17T19:06:53.504Z,99398.38
2022-12-17T19:09:27.789Z,99389.13
2022-12-17T19:11:55.852Z,99395.19
2022-12-17T19:14:23.382Z,99401.31
2022-12-17T19:16:52.212Z,99397.91
2022-12-17T19:19:19.236Z,99397.09
2022-12-17T19:21:46.107Z,99389.81
2022-12-17T19:24:14.896Z,99389.72
2022-12-17T19:26:42.258Z,99388.50
2022-12-17T19:29:10.729Z,99390.19
2022-12-17T19:31:38.105Z,99401.44
2022-12-17T19:34:07.232Z,99398.75
2022-12-17T19:36:35.500Z,99401.81
2022-12-17T19:39:05.205Z,99404.63
2022-12-17T19:41:32.934Z,99402.13
2022-12-17T19:44:05.500Z,99396.16
2022-12-17T19:46:34.942Z,99393.94
2022-12-17T19:49:01.884Z,99400.31
2022-12-17T19:51:30.677Z,99399.00
2022-12-17T19:54:00.619Z,99395.94
2022-12-17T19:56:33.808Z,99394.16
2022-12-17T19:59:03.583Z,99400.16
2022-12-17T20:01:36.591Z,99399.78
2022-12-17T20:04:04.696Z,99407.09
2022-12-17T20:06:33.206Z,99406.38
2022-12-17T20:09:01.079Z,99414.97
2022-12-17T20:11:33.803Z,99410.56
2022-12-17T20:14:11.070Z,99400.34
2022-12-17T20:16:43.440Z,99401.19
2022-12-17T20:19:19.001Z,99409.31
2022-12-17T20:21:46.100Z,99410.34
2022-12-17T20:24:14.344Z,99404.28
2022-12-17T20:26:41.772Z,99410.16
2022-12-17T20:29:09.003Z,99412.75
2022-12-17T20:31:37.025Z,99403.69
2022-12-17T20:34:05.617Z,99416.19
2022-12-17T20:36:32.760Z,99412.69
2022-12-17T20:38:59.888Z,99410.13
2022-12-17T20:41:28.852Z,99417.06
2022-12-17T20:43:55.702Z,99411.69
2022-12-17T20:46:23.724Z,99421.34
2022-12-17T20:48:51.386Z,99421.13
2022-12-17T20:51:27.284Z,99425.50
2022-12-17T20:53:56.120Z,99420.16
2022-12-17T20:56:25.511Z,99420.16
2022-12-17T20:59:03.144Z,99419.97
2022-12-17T21:01:32.060Z,99412.41
2022-12-17T21:03:59.606Z,99413.75
2022-12-17T21:06:57.317Z,99418.19
2022-12-17T21:09:25.272Z,99413.63
2022-12-17T21:11:51.973Z,99411.09
2022-12-17T21:14:19.345Z,99411.25
2022-12-17T21:16:46.813Z,99418.63
2022-12-17T21:19:16.787Z,99416.00
2022-12-17T21:21:43.962Z,99420.69
2022-12-17T21:24:10.877Z,99415.75
2022-12-17T21:26:40.296Z,99420.31
2022-12-17T21:29:08.465Z,99422.34
2022-12-17T21:31:41.671Z,99433.84
2022-12-17T21:34:12.104Z,99432.25
2022-12-17T21:36:39.555Z,99433.41
2022-12-17T21:39:08.696Z,99433.56
2022-12-17T21:41:40.316Z,99441.31
2022-12-17T21:44:13.094Z,99443.97
2022-12-17T21:46:40.916Z,99445.50
2022-12-17T21:49:07.563Z,99432.59
2022-12-17T21:51:34.613Z,99430.84
2022-12-17T21:54:08.377Z,99433.41
2022-12-17T21:56:36.262Z,99433.94
2022-12-17T21:59:02.972Z,99430.19
2022-12-17T22:01:32.314Z,99435.50
2022-12-17T22:04:01.329Z,99445.44
2022-12-17T22:06:32.792Z,99440.66
2022-12-17T22:09:11.714Z,99438.88
2022-12-17T22:11:46.238Z,99440.81
2022-12-17T22:14:20.293Z,99439.88
2022-12-17T22:16:49.504Z,99441.72
2022-12-17T22:19:21.799Z,99445.03
2022-12-17T22:21:56.386Z,99448.28
2022-12-17T22:24:26.046Z,99444.00
2022-12-17T22:27:00.021Z,99446.59
2022-12-17T22:29:46.442Z,99448.13
2022-12-17T22:32:31.705Z,99453.19
2022-12-17T22:36:49.165Z,99452.16
2022-12-17T22:42:06.219Z,99451.06
2022-12-17T22:44:34.122Z,99444.50
2022-12-17T22:44:37.716Z,99448.94
2022-12-17T22:46:19.360Z,99461.09
2022-12-17T22:48:46.396Z,99465.72
2022-12-17T22:51:20.851Z,99462.63
2022-12-17T22:53:55.732Z,99449.75
2022-12-17T22:57:05.152Z,99453.25
2022-12-17T22:59:18.284Z,99454.22
2022-12-17T23:01:45.114Z,99457.50
2022-12-17T23:04:14.089Z,99462.69
2022-12-17T23:06:42.194Z,99454.28
2022-12-17T23:09:08.849Z,99449.09
2022-12-17T23:11:35.598Z,99440.47
2022-12-17T23:14:02.575Z,99444.78
2022-12-17T23:16:30.124Z,99455.81
2022-12-17T23:19:00.476Z,99462.63
2022-12-17T23:21:27.607Z,99463.66
2022-12-17T23:23:55.808Z,99454.94
2022-12-17T23:26:31.470Z,99455.97
2022-12-17T23:29:01.762Z,99454.28
2022-12-17T23:31:32.268Z,99461.06
2022-12-17T23:33:59.163Z,99461.88
2022-12-17T23:36:26.918Z,99454.13
2022-12-17T23:38:56.720Z,99446.38
2022-12-17T23:41:26.724Z,99442.47
2022-12-17T23:43:54.007Z,99435.47
2022-12-17T23:46:21.902Z,99434.19
2022-12-17T23:48:48.982Z,99440.53
2022-12-17T23:51:18.032Z,99441.59
2022-12-17T23:53:45.132Z,99442.28
2022-12-17T23:56:20.966Z,99444.75
2022-12-17T23:58:48.300Z,99449.56
